This is the latest recevied weather packets stored in our database for station/object IW2NIA-3. If no packets are shown the sender has not sent any weather packets the latest 10 day(s).
| Time | Temp. | Humidity | Pressure | Rain* | Wind** | Luminosity | Snow |
|---|---|---|---|---|---|---|---|
| 1777855721 | 13.33° C | 74% | 1016.3 hPa | 0 mm | - | - | - |
| 1777854818 | 13.33° C | 74% | 1016.5 hPa | 0 mm | - | - | - |
| 1777853910 | 13.33° C | 74% | 1016.6 hPa | 0 mm | - | - | - |
| 1777853022 | 13.33° C | 74% | 1016.7 hPa | 0 mm | - | - | - |
| 1777852117 | 13.33° C | 74% | 1016.8 hPa | 0 mm | - | - | - |
| 1777851212 | 13.89° C | 74% | 1016.9 hPa | 0 mm | - | - | - |
| 1777850326 | 13.89° C | 74% | 1017 hPa | 0 mm | - | - | - |
| 1777849416 | 13.89° C | 73% | 1017 hPa | 0 mm | - | - | - |
| 1777848510 | 13.89° C | 74% | 1017.1 hPa | 0 mm | - | - | - |
| 1777847626 | 13.89° C | 73% | 1017.1 hPa | 0 mm | - | - | - |
| 1777846721 | 14.44° C | 70% | 1017.1 hPa | 0 mm | - | - | - |
| 1777845813 | 15° C | 67% | 1017 hPa | 0 mm | - | - | - |
| 1777844924 | 15.56° C | 65% | 1016.9 hPa | 0 mm | - | - | - |
| 1777844021 | 15.56° C | 65% | 1016.9 hPa | 0 mm | - | - | - |
| 1777843114 | 16.11° C | 64% | 1016.7 hPa | 0 mm | - | - | - |
| 1777842223 | 16.11° C | 61% | 1016.8 hPa | 0 mm | - | - | - |
| 1777841310 | 16.67° C | 60% | 1016.7 hPa | 0 mm | - | - | - |
| 1777840408 | 16.67° C | 60% | 1016.6 hPa | 0 mm | - | - | - |
| 1777839526 | 16.67° C | 59% | 1016.7 hPa | 0 mm | - | - | - |
| 1777838620 | 16.67° C | 54% | 1016.5 hPa | 0 mm | - | - | - |
| 1777837712 | 17.22° C | 53% | 1016.3 hPa | 0 mm | - | - | - |
| 1777836809 | 17.22° C | 50% | 1016.2 hPa | 0 mm | - | - | - |
| 1777835925 | 17.78° C | 48% | 1016 hPa | 0 mm | - | - | - |
| 1777835025 | 18.33° C | 47% | 1015.9 hPa | 0 mm | - | - | - |
| 1777834120 | 18.89° C | 46% | 1015.8 hPa | 0 mm | - | - | - |
* Rain latest hour (hover to see other rain measurements)
** Current wind speed in m/s (hover to see current wind gust speed)